Time;durP1;ratioP1;P1;durP2;ratioP2;P2;SDS_P1;SDS_P2;PMS_P1;PMS_P2;Temp;Humidity;BMP_temperature;BMP_pressure;BME280_temperature;BME280_humidity;BME280_pressure;Samples;Min_cycle;Max_cycle;Signal;HPM_P1;HPM_P2
2023/06/26 00:01:46;;;;;;;11.43;8.90;;;20.10;99.90;;;;;;4997848;28;20518;-77
2023/06/26 00:04:14;;;;;;;14.17;10.03;;;20.00;99.90;;;;;;4989990;28;20483;-77
2023/06/26 00:06:41;;;;;;;10.90;9.00;;;20.00;99.90;;;;;;4995067;28;20473;-77
2023/06/26 00:09:07;;;;;;;10.80;8.37;;;20.00;99.90;;;;;;5001252;28;20508;-77
2023/06/26 00:11:34;;;;;;;11.57;9.30;;;20.00;99.90;;;;;;4997386;28;20498;-77
2023/06/26 00:14:02;;;;;;;10.20;8.60;;;20.00;99.90;;;;;;4988590;28;20471;-77
2023/06/26 00:16:30;;;;;;;11.10;9.70;;;19.90;99.90;;;;;;4991727;28;20459;-77
2023/06/26 00:18:58;;;;;;;9.40;8.37;;;19.90;99.90;;;;;;4994343;28;20466;-77
2023/06/26 00:21:25;;;;;;;14.47;10.13;;;19.90;99.90;;;;;;5005360;28;20548;-77
2023/06/26 00:23:52;;;;;;;9.93;8.77;;;19.90;99.90;;;;;;4998838;28;20555;-77
2023/06/26 00:26:18;;;;;;;15.97;8.50;;;19.90;99.90;;;;;;5003417;28;20466;-77
2023/06/26 00:28:45;;;;;;;16.03;9.40;;;19.80;99.90;;;;;;5003415;28;20456;-77
2023/06/26 00:31:13;;;;;;;11.50;8.97;;;19.80;99.90;;;;;;5002324;28;20458;-77
2023/06/26 00:33:39;;;;;;;14.00;9.10;;;19.80;99.90;;;;;;5008186;28;20877;-77
2023/06/26 00:36:06;;;;;;;9.87;8.83;;;19.70;99.90;;;;;;5008529;28;20458;-77
2023/06/26 00:38:33;;;;;;;12.53;8.70;;;19.70;99.90;;;;;;5003582;28;20537;-77
2023/06/26 00:40:59;;;;;;;9.67;8.67;;;19.60;99.90;;;;;;5004785;28;20493;-77
2023/06/26 00:43:26;;;;;;;11.77;8.77;;;19.60;99.90;;;;;;5003792;28;20533;-77
2023/06/26 00:45:52;;;;;;;13.27;9.43;;;19.50;99.90;;;;;;5005218;28;20462;-77
2023/06/26 00:48:20;;;;;;;12.93;10.13;;;19.40;99.90;;;;;;5006897;28;21013;-78
2023/06/26 00:50:47;;;;;;;14.37;11.20;;;19.40;99.90;;;;;;5000406;28;21028;-77
2023/06/26 00:53:14;;;;;;;11.47;9.70;;;19.30;99.90;;;;;;4999977;28;21062;-77
2023/06/26 00:55:40;;;;;;;10.80;9.70;;;19.30;99.90;;;;;;4996204;28;20975;-77
2023/06/26 00:58:07;;;;;;;11.43;10.03;;;19.20;99.90;;;;;;4996446;28;20454;-77
2023/06/26 01:00:34;;;;;;;11.07;9.63;;;19.10;99.90;;;;;;5005779;28;20462;-77
2023/06/26 01:03:01;;;;;;;12.20;9.43;;;19.10;99.90;;;;;;5008388;28;20876;-77
2023/06/26 01:05:30;;;;;;;11.40;9.80;;;19.00;99.90;;;;;;5002286;28;20548;-77
2023/06/26 01:07:58;;;;;;;10.70;9.40;;;19.00;99.90;;;;;;4991735;28;20517;-77
2023/06/26 01:10:27;;;;;;;14.03;9.90;;;18.90;99.90;;;;;;4996361;28;20459;-77
2023/06/26 01:12:54;;;;;;;12.90;10.17;;;18.90;99.90;;;;;;4991148;28;20490;-77
2023/06/26 01:15:21;;;;;;;15.57;10.40;;;18.90;99.90;;;;;;4996420;28;20509;-77
2023/06/26 01:17:48;;;;;;;12.67;9.80;;;18.80;99.90;;;;;;4993212;28;21059;-77
2023/06/26 01:20:15;;;;;;;12.97;9.50;;;18.80;99.90;;;;;;4991495;28;20469;-77
2023/06/26 01:22:57;;;;;;;12.77;10.00;;;18.70;99.90;;;;;;4988410;28;20999;-77
2023/06/26 01:25:38;;;;;;;12.23;10.67;;;18.70;99.90;;;;;;4998246;28;20540;-77
2023/06/26 01:28:07;;;;;;;16.93;9.83;;;18.70;99.90;;;;;;5008176;28;20461;-77
2023/06/26 01:30:34;;;;;;;12.90;10.50;;;18.60;99.90;;;;;;5001901;28;20497;-77
2023/06/26 01:33:03;;;;;;;12.10;10.20;;;18.60;99.90;;;;;;5003054;28;20536;-77
2023/06/26 01:35:30;;;;;;;15.93;10.77;;;18.60;99.90;;;;;;4989475;28;20462;-77
2023/06/26 01:38:12;;;;;;;16.07;11.10;;;18.70;99.90;;;;;;4992135;28;21154;-77
2023/06/26 01:40:38;;;;;;;13.43;11.10;;;18.60;99.90;;;;;;5000029;28;20451;-77
2023/06/26 01:43:10;;;;;;;12.60;10.03;;;18.60;99.90;;;;;;4995201;28;20477;-77
2023/06/26 01:45:37;;;;;;;13.20;10.50;;;18.60;99.90;;;;;;4995982;28;21226;-77
2023/06/26 01:48:09;;;;;;;12.97;10.30;;;18.60;99.90;;;;;;4988353;28;20525;-78
2023/06/26 01:50:37;;;;;;;10.47;9.37;;;18.60;99.90;;;;;;4990160;28;20450;-78
2023/06/26 01:53:11;;;;;;;12.13;9.90;;;18.60;99.90;;;;;;5000639;28;20883;-77
2023/06/26 01:55:45;;;;;;;11.53;10.20;;;18.60;99.90;;;;;;5007798;28;20500;-77
2023/06/26 01:58:16;;;;;;;13.50;10.97;;;18.50;99.90;;;;;;5008348;28;20437;-78
2023/06/26 02:00:43;;;;;;;13.70;10.67;;;18.50;99.90;;;;;;4998677;28;20452;-77
2023/06/26 02:03:10;;;;;;;13.60;11.30;;;18.50;99.90;;;;;;5003112;28;20528;-77
2023/06/26 02:05:37;;;;;;;12.53;10.90;;;18.50;99.90;;;;;;4991981;28;20491;-77
2023/06/26 02:08:04;;;;;;;11.83;9.57;;;18.50;99.90;;;;;;5002536;28;21132;-77
2023/06/26 02:10:30;;;;;;;11.37;10.17;;;18.50;99.90;;;;;;4998189;28;20892;-77
2023/06/26 02:12:57;;;;;;;13.93;9.70;;;18.50;99.90;;;;;;4999506;28;20463;-77
2023/06/26 02:15:25;;;;;;;12.80;10.53;;;18.40;99.90;;;;;;4991505;28;20455;-77
2023/06/26 02:17:51;;;;;;;10.90;9.80;;;18.40;99.90;;;;;;5004776;28;20508;-77
2023/06/26 02:20:18;;;;;;;13.50;10.47;;;18.40;99.90;;;;;;5001458;28;21016;-77
2023/06/26 02:22:45;;;;;;;14.20;10.77;;;18.40;99.90;;;;;;5011023;28;20504;-77
2023/06/26 02:25:12;;;;;;;15.67;10.77;;;18.30;99.90;;;;;;5006095;28;20483;-77
2023/06/26 02:27:39;;;;;;;13.23;10.30;;;18.30;99.90;;;;;;4998940;28;20463;-77
2023/06/26 02:30:07;;;;;;;10.00;9.00;;;18.30;99.90;;;;;;4996291;28;21024;-77
2023/06/26 02:32:34;;;;;;;13.53;10.77;;;18.30;99.90;;;;;;4999868;28;20450;-77
2023/06/26 02:35:01;;;;;;;12.33;10.23;;;18.30;99.90;;;;;;4997585;28;21219;-77
2023/06/26 02:37:28;;;;;;;16.03;10.47;;;18.20;99.90;;;;;;4992837;28;20454;-77
2023/06/26 02:39:54;;;;;;;12.97;9.70;;;18.20;99.90;;;;;;4997214;28;20913;-77
2023/06/26 02:42:21;;;;;;;12.93;10.70;;;18.20;99.90;;;;;;5001025;28;20462;-77
2023/06/26 02:44:47;;;;;;;15.10;10.40;;;18.10;99.90;;;;;;5002862;28;20486;-77
2023/06/26 02:47:14;;;;;;;12.90;10.90;;;18.10;99.90;;;;;;5006992;28;20466;-77
2023/06/26 02:49:42;;;;;;;14.00;9.63;;;18.10;99.90;;;;;;5010568;28;20425;-77
2023/06/26 02:52:09;;;;;;;12.07;10.37;;;18.00;99.90;;;;;;5003387;28;20430;-77
2023/06/26 02:54:35;;;;;;;14.20;10.30;;;18.00;99.90;;;;;;4990670;28;20547;-77
2023/06/26 02:57:02;;;;;;;15.97;11.33;;;18.00;99.90;;;;;;4990625;28;20986;-77
2023/06/26 02:59:29;;;;;;;10.90;9.77;;;17.90;99.90;;;;;;4999614;28;20466;-77
2023/06/26 03:01:55;;;;;;;13.60;10.30;;;17.90;99.90;;;;;;4997058;28;20430;-77
2023/06/26 03:04:22;;;;;;;15.00;10.23;;;17.80;99.90;;;;;;4996884;28;20538;-77
2023/06/26 03:06:50;;;;;;;12.80;10.73;;;17.80;99.90;;;;;;5002468;28;20508;-77
2023/06/26 03:09:17;;;;;;;12.13;10.20;;;17.80;99.90;;;;;;5002534;28;20487;-77
2023/06/26 03:11:44;;;;;;;21.97;10.80;;;17.80;99.90;;;;;;4990704;28;20494;-77
2023/06/26 03:14:11;;;;;;;13.90;10.33;;;17.70;99.90;;;;;;5005353;28;20444;-77
2023/06/26 03:16:37;;;;;;;16.27;10.77;;;17.70;99.90;;;;;;5002817;28;21240;-77
2023/06/26 03:19:04;;;;;;;12.83;10.80;;;17.70;99.90;;;;;;5010280;28;20463;-77
2023/06/26 03:21:31;;;;;;;19.00;11.50;;;17.70;99.90;;;;;;5000571;28;20470;-77
2023/06/26 03:23:59;;;;;;;16.37;11.30;;;17.60;99.90;;;;;;4996562;28;20537;-77
2023/06/26 03:26:27;;;;;;;14.93;11.53;;;17.50;99.90;;;;;;4998543;28;20465;-77
2023/06/26 03:28:54;;;;;;;17.67;11.50;;;17.50;99.90;;;;;;4990474;28;20462;-77
2023/06/26 03:31:20;;;;;;;13.87;11.80;;;17.50;99.90;;;;;;4996765;28;21137;-77
2023/06/26 03:33:47;;;;;;;11.80;10.30;;;17.40;99.90;;;;;;4993723;28;20494;-77
2023/06/26 03:36:13;;;;;;;11.60;10.00;;;17.40;99.90;;;;;;4993561;28;21029;-77
2023/06/26 03:38:40;;;;;;;12.60;10.57;;;17.40;99.90;;;;;;5006185;28;20498;-77
2023/06/26 03:41:08;;;;;;;16.67;11.73;;;17.40;99.90;;;;;;4998405;28;20843;-77
2023/06/26 03:43:35;;;;;;;17.50;12.00;;;17.40;99.90;;;;;;5008047;28;20499;-77
2023/06/26 03:46:01;;;;;;;16.23;11.80;;;17.40;99.90;;;;;;5009496;28;20635;-77
2023/06/26 03:48:28;;;;;;;16.20;12.27;;;17.30;99.90;;;;;;5008232;28;20454;-77
2023/06/26 03:50:55;;;;;;;13.10;11.40;;;17.30;99.90;;;;;;4990741;28;20451;-77
2023/06/26 03:53:21;;;;;;;15.83;11.60;;;17.30;99.90;;;;;;5003429;28;20456;-78
2023/06/26 03:55:48;;;;;;;13.80;12.03;;;17.20;99.90;;;;;;4993991;28;20509;-77
2023/06/26 03:58:16;;;;;;;20.80;12.17;;;17.20;99.90;;;;;;5007603;28;20865;-77
2023/06/26 04:00:43;;;;;;;15.00;12.03;;;17.10;99.90;;;;;;4992650;28;20425;-77
2023/06/26 04:03:09;;;;;;;17.60;12.20;;;17.20;99.90;;;;;;4997771;28;20528;-77
2023/06/26 04:05:36;;;;;;;15.17;12.40;;;17.20;99.90;;;;;;4991887;28;20553;-77
2023/06/26 04:08:03;;;;;;;14.27;12.20;;;17.20;99.90;;;;;;5008650;28;20524;-78
2023/06/26 04:10:29;;;;;;;17.77;12.63;;;17.20;99.90;;;;;;5009053;28;20428;-77
2023/06/26 04:12:56;;;;;;;16.10;11.93;;;17.20;99.90;;;;;;5008535;28;20455;-76
2023/06/26 04:15:24;;;;;;;14.90;12.17;;;17.20;99.90;;;;;;5006700;28;20433;-76
2023/06/26 04:17:51;;;;;;;16.70;12.53;;;17.20;99.90;;;;;;4989350;28;20477;-76
2023/06/26 04:20:17;;;;;;;17.43;11.70;;;17.30;99.90;;;;;;4989417;28;20579;-76
2023/06/26 04:22:45;;;;;;;14.63;12.43;;;17.30;99.90;;;;;;4993683;28;20448;-76
2023/06/26 04:25:12;;;;;;;15.20;11.40;;;17.30;99.90;;;;;;4993736;28;20470;-76
2023/06/26 04:27:39;;;;;;;16.50;11.53;;;17.40;99.90;;;;;;5007810;28;20959;-76
2023/06/26 04:30:07;;;;;;;14.60;10.80;;;17.40;99.90;;;;;;4999422;28;20464;-76
2023/06/26 04:32:35;;;;;;;15.23;10.60;;;17.50;99.90;;;;;;4998403;28;20463;-76
2023/06/26 04:35:02;;;;;;;15.73;10.53;;;17.50;99.90;;;;;;4988830;28;20426;-76
2023/06/26 04:37:29;;;;;;;14.87;11.13;;;17.60;99.90;;;;;;4994802;28;20551;-76
2023/06/26 04:39:56;;;;;;;13.00;10.10;;;17.60;99.90;;;;;;5008167;28;21045;-76
2023/06/26 04:42:22;;;;;;;15.10;10.83;;;17.80;99.90;;;;;;5008321;28;20446;-76
2023/06/26 04:44:49;;;;;;;14.30;10.67;;;17.80;99.90;;;;;;5007843;28;20977;-76
2023/06/26 04:47:16;;;;;;;13.63;10.23;;;17.90;99.90;;;;;;5008345;28;20479;-76
2023/06/26 04:49:45;;;;;;;12.90;10.40;;;18.00;99.90;;;;;;5007081;28;20450;-74
2023/06/26 04:52:13;;;;;;;20.50;12.03;;;18.10;99.90;;;;;;5001014;28;20483;-74
2023/06/26 04:54:40;;;;;;;13.33;10.67;;;18.30;99.90;;;;;;5008190;28;20528;-74
2023/06/26 04:57:08;;;;;;;13.67;10.53;;;18.40;99.90;;;;;;5008433;28;20978;-74
2023/06/26 04:59:35;;;;;;;18.60;11.40;;;18.50;99.90;;;;;;5000008;28;20434;-75
2023/06/26 05:02:01;;;;;;;14.77;11.70;;;18.60;99.90;;;;;;5007139;28;20455;-74
2023/06/26 05:04:28;;;;;;;14.10;11.70;;;18.70;99.90;;;;;;5004862;28;20464;-73
2023/06/26 05:06:56;;;;;;;15.87;11.30;;;18.80;99.90;;;;;;5007552;28;20469;-73
2023/06/26 05:09:23;;;;;;;18.23;11.70;;;18.90;99.90;;;;;;5008252;28;20425;-73
2023/06/26 05:11:49;;;;;;;13.70;11.03;;;19.00;99.90;;;;;;5002096;28;20461;-72
2023/06/26 05:14:16;;;;;;;18.23;11.43;;;19.10;99.90;;;;;;4999436;28;20449;-72
2023/06/26 05:16:42;;;;;;;16.97;11.30;;;19.20;99.90;;;;;;5007377;28;20540;-72
2023/06/26 05:19:09;;;;;;;14.90;11.37;;;19.20;99.90;;;;;;5006943;28;20508;-72
2023/06/26 05:21:36;;;;;;;16.00;11.30;;;19.40;99.90;;;;;;4995278;28;20513;-72
2023/06/26 05:24:05;;;;;;;16.30;11.40;;;19.40;99.90;;;;;;5006677;28;20503;-69
2023/06/26 05:26:32;;;;;;;17.13;11.27;;;19.60;99.90;;;;;;5006283;28;20456;-70
2023/06/26 05:28:59;;;;;;;17.57;11.70;;;19.70;99.90;;;;;;5006245;28;20501;-70
2023/06/26 05:31:26;;;;;;;13.77;10.10;;;19.80;99.90;;;;;;4999811;28;20450;-70
2023/06/26 05:33:56;;;;;;;18.47;12.53;;;19.80;99.90;;;;;;5007246;28;20891;-70
2023/06/26 05:36:24;;;;;;;16.23;10.53;;;19.90;99.90;;;;;;5006372;28;20413;-70
2023/06/26 05:38:52;;;;;;;14.33;11.40;;;20.00;99.90;;;;;;5012112;28;20963;-70
2023/06/26 05:41:20;;;;;;;20.83;12.53;;;20.00;99.90;;;;;;5011928;28;20450;-70
2023/06/26 05:43:47;;;;;;;13.27;10.70;;;20.10;99.90;;;;;;5011600;28;20528;-70
2023/06/26 05:46:14;;;;;;;12.93;10.63;;;20.20;99.90;;;;;;5011376;28;20565;-70
2023/06/26 05:48:40;;;;;;;13.07;11.20;;;20.20;99.90;;;;;;5010963;28;20429;-70
2023/06/26 05:51:08;;;;;;;12.60;10.60;;;20.20;99.90;;;;;;5005369;28;20454;-70
2023/06/26 05:53:35;;;;;;;16.93;11.83;;;20.40;99.90;;;;;;5009040;28;20514;-69
2023/06/26 05:56:02;;;;;;;12.43;10.53;;;20.50;99.90;;;;;;5011854;28;20425;-70
2023/06/26 05:58:31;;;;;;;12.37;10.57;;;20.60;99.90;;;;;;5004656;28;20549;-70
2023/06/26 06:00:57;;;;;;;16.40;11.80;;;20.80;99.90;;;;;;5010279;28;20481;-70
2023/06/26 06:03:24;;;;;;;13.87;11.03;;;20.90;99.90;;;;;;5011349;28;20481;-70
2023/06/26 06:05:51;;;;;;;13.43;10.53;;;20.90;99.90;;;;;;5001592;28;20494;-69
2023/06/26 06:08:18;;;;;;;14.60;12.20;;;21.00;99.90;;;;;;5004506;28;20461;-70
2023/06/26 06:10:44;;;;;;;13.23;11.13;;;21.00;99.90;;;;;;5007780;28;20470;-71
2023/06/26 06:13:11;;;;;;;14.50;11.43;;;21.20;99.90;;;;;;5006159;28;20474;-73
2023/06/26 06:15:39;;;;;;;13.83;11.57;;;21.30;99.90;;;;;;5011112;28;20442;-73
2023/06/26 06:18:06;;;;;;;15.63;11.23;;;21.50;99.90;;;;;;4995684;28;20502;-72
2023/06/26 06:20:32;;;;;;;14.40;11.37;;;21.50;99.90;;;;;;4999098;28;20455;-73
2023/06/26 06:22:59;;;;;;;15.10;10.63;;;21.50;99.90;;;;;;5007092;28;20489;-73
2023/06/26 06:25:25;;;;;;;17.77;12.20;;;21.40;99.90;;;;;;4999669;28;20484;-72
2023/06/26 06:27:52;;;;;;;13.67;11.47;;;21.50;99.90;;;;;;5009260;28;20989;-72
2023/06/26 06:30:19;;;;;;;17.10;10.50;;;21.70;99.90;;;;;;4995779;28;20521;-72
2023/06/26 06:32:50;;;;;;;13.73;10.90;;;21.90;99.90;;;;;;5010105;28;20477;-72
2023/06/26 06:35:17;;;;;;;21.03;11.30;;;22.00;99.90;;;;;;5010712;28;20474;-72
2023/06/26 06:37:43;;;;;;;13.80;11.57;;;22.00;99.90;;;;;;5010774;28;20516;-72
2023/06/26 06:40:11;;;;;;;16.33;11.93;;;22.10;99.90;;;;;;5010584;28;20448;-72
2023/06/26 06:42:38;;;;;;;13.33;11.43;;;22.30;99.90;;;;;;5010127;28;21200;-73
2023/06/26 06:45:06;;;;;;;15.40;11.80;;;22.40;99.90;;;;;;5010872;28;20477;-72
2023/06/26 06:47:33;;;;;;;14.87;11.90;;;22.40;99.90;;;;;;5002534;28;20614;-73
2023/06/26 06:50:07;;;;;;;18.50;11.33;;;22.50;99.90;;;;;;5010706;28;20544;-73
2023/06/26 06:52:35;;;;;;;16.00;11.23;;;22.70;99.90;;;;;;5004237;28;20470;-73
2023/06/26 06:55:06;;;;;;;13.20;11.40;;;22.90;99.90;;;;;;5008438;28;20990;-73
2023/06/26 06:57:35;;;;;;;20.13;11.63;;;23.10;99.90;;;;;;5003493;28;20873;-72
2023/06/26 07:00:04;;;;;;;12.90;10.60;;;23.20;99.90;;;;;;5008560;28;20462;-72
2023/06/26 07:02:31;;;;;;;16.27;11.90;;;23.20;99.90;;;;;;5009349;28;20529;-70
2023/06/26 07:04:57;;;;;;;13.67;11.70;;;23.30;99.90;;;;;;5003281;28;20454;-68
2023/06/26 07:07:30;;;;;;;14.60;11.30;;;23.40;99.90;;;;;;5008354;28;20486;-72
2023/06/26 07:09:58;;;;;;;20.10;11.70;;;23.50;99.90;;;;;;5010083;28;20442;-69
2023/06/26 07:12:25;;;;;;;18.37;11.67;;;23.60;99.90;;;;;;5001074;28;20469;-70
2023/06/26 07:14:51;;;;;;;14.37;10.73;;;23.80;99.90;;;;;;5009881;28;20447;-70
2023/06/26 07:17:18;;;;;;;16.83;9.97;;;24.00;99.90;;;;;;5009401;28;20446;-69
2023/06/26 07:19:44;;;;;;;18.40;11.30;;;24.00;99.90;;;;;;5009247;28;20520;-70
2023/06/26 07:22:11;;;;;;;20.70;10.57;;;24.00;99.90;;;;;;5005544;28;20450;-70
2023/06/26 07:24:39;;;;;;;13.30;10.43;;;24.30;99.90;;;;;;5006647;28;20536;-70
2023/06/26 07:27:06;;;;;;;20.40;11.27;;;24.40;99.90;;;;;;5009416;28;20937;-69
2023/06/26 07:29:33;;;;;;;12.47;10.53;;;24.70;99.90;;;;;;5005477;28;20882;-70
2023/06/26 07:31:59;;;;;;;16.10;11.20;;;24.90;99.90;;;;;;5007080;28;20516;-70
2023/06/26 07:34:26;;;;;;;16.50;10.40;;;25.00;99.90;;;;;;5004921;28;20486;-70
2023/06/26 07:36:53;;;;;;;14.97;10.13;;;25.30;99.90;;;;;;4994815;28;20450;-70
2023/06/26 07:39:19;;;;;;;14.73;10.37;;;25.60;99.90;;;;;;5008601;28;20537;-70
2023/06/26 07:41:47;;;;;;;14.47;9.80;;;25.70;99.90;;;;;;5009499;28;20462;-70
2023/06/26 07:44:14;;;;;;;16.80;11.83;;;25.80;99.90;;;;;;5008930;28;20482;-70
2023/06/26 07:46:40;;;;;;;14.63;10.90;;;25.90;99.90;;;;;;5007649;28;20537;-70
2023/06/26 07:49:07;;;;;;;21.97;10.00;;;26.00;99.90;;;;;;5009229;28;20925;-70
2023/06/26 07:51:34;;;;;;;15.80;9.60;;;26.20;99.90;;;;;;5001973;28;20514;-70
2023/06/26 07:54:00;;;;;;;12.07;10.27;;;26.50;99.90;;;;;;5001181;28;20474;-70
2023/06/26 07:56:27;;;;;;;12.70;9.23;;;26.70;99.90;;;;;;5009652;28;20442;-70
2023/06/26 07:58:57;;;;;;;19.43;9.80;;;26.80;99.90;;;;;;5009351;28;20513;-70
2023/06/26 08:01:24;;;;;;;14.10;9.10;;;27.00;99.90;;;;;;5009512;28;20966;-70
2023/06/26 08:03:51;;;;;;;12.03;10.17;;;27.20;99.90;;;;;;5008735;28;20513;-71
2023/06/26 08:06:18;;;;;;;13.20;10.20;;;27.20;99.90;;;;;;5009236;28;20551;-70
2023/06/26 08:08:45;;;;;;;12.93;10.23;;;27.20;99.90;;;;;;5009508;28;20469;-71
2023/06/26 08:11:11;;;;;;;12.40;9.87;;;27.20;99.90;;;;;;5009132;28;20585;-71
2023/06/26 08:13:39;;;;;;;13.00;9.10;;;27.40;99.90;;;;;;5002377;28;21050;-70
2023/06/26 08:16:07;;;;;;;9.60;7.80;;;27.50;99.90;;;;;;5002937;28;20455;-70
2023/06/26 08:18:33;;;;;;;9.57;8.57;;;27.60;99.90;;;;;;4999231;28;20474;-70
2023/06/26 08:21:00;;;;;;;10.00;8.60;;;27.70;99.90;;;;;;5007692;28;20989;-70
2023/06/26 08:23:27;;;;;;;7.77;7.07;;;27.90;99.90;;;;;;5007840;28;20498;-70
2023/06/26 08:25:53;;;;;;;11.83;6.70;;;27.70;99.90;;;;;;5008006;28;21172;-71
2023/06/26 08:28:20;;;;;;;7.70;6.57;;;27.60;99.90;;;;;;5008709;28;20454;-70
2023/06/26 08:30:47;;;;;;;7.80;7.00;;;27.70;99.90;;;;;;4997251;28;20455;-70
2023/06/26 08:33:15;;;;;;;6.60;6.00;;;28.00;99.90;;;;;;5002770;28;20718;-71
2023/06/26 08:35:42;;;;;;;7.67;6.87;;;28.20;99.90;;;;;;5006395;28;20484;-70
2023/06/26 08:38:09;;;;;;;7.53;6.80;;;28.10;99.90;;;;;;5007321;28;20821;-70
2023/06/26 08:40:36;;;;;;;8.40;7.30;;;28.00;99.90;;;;;;5007852;28;20884;-71
2023/06/26 08:43:04;;;;;;;8.50;6.97;;;27.90;99.90;;;;;;5007611;28;20478;-70
2023/06/26 08:45:30;;;;;;;8.60;7.07;;;28.20;99.90;;;;;;5001487;28;20493;-70
2023/06/26 08:48:01;;;;;;;8.23;6.93;;;28.30;99.90;;;;;;5008518;28;20567;-70
2023/06/26 08:50:32;;;;;;;10.83;6.97;;;28.40;99.90;;;;;;5003545;28;20461;-70
2023/06/26 08:53:07;;;;;;;8.33;6.90;;;28.80;99.90;;;;;;5007647;28;20466;-70
2023/06/26 08:55:36;;;;;;;7.93;6.87;;;28.60;99.90;;;;;;5007451;28;20463;-70
2023/06/26 08:58:03;;;;;;;7.50;6.80;;;28.80;99.90;;;;;;5003268;28;20473;-71
2023/06/26 09:00:30;;;;;;;7.47;6.70;;;29.10;99.90;;;;;;5007452;28;21079;-71
2023/06/26 09:02:57;;;;;;;7.97;7.17;;;29.30;99.90;;;;;;5002804;28;20489;-71
2023/06/26 09:05:24;;;;;;;11.10;6.30;;;29.10;99.90;;;;;;5004765;28;20447;-70
2023/06/26 09:07:55;;;;;;;10.20;6.57;;;29.20;99.90;;;;;;5003404;28;20510;-71
2023/06/26 09:10:22;;;;;;;9.33;6.90;;;29.10;99.90;;;;;;5002758;28;20517;-70
2023/06/26 09:12:49;;;;;;;8.40;7.50;;;29.20;99.90;;;;;;4997081;28;20486;-71
2023/06/26 09:15:16;;;;;;;11.10;7.23;;;29.40;99.90;;;;;;5006979;28;20446;-71
2023/06/26 09:17:43;;;;;;;7.77;6.97;;;29.40;99.90;;;;;;5003756;28;20520;-71
2023/06/26 09:20:11;;;;;;;8.90;6.87;;;29.00;99.90;;;;;;5007807;28;20902;-72
2023/06/26 09:22:39;;;;;;;9.50;7.20;;;28.60;99.90;;;;;;5006942;28;20549;-71
2023/06/26 09:25:08;;;;;;;12.90;7.20;;;28.50;99.90;;;;;;5002798;28;20446;-72
2023/06/26 09:27:35;;;;;;;9.07;7.10;;;28.40;99.90;;;;;;5004190;28;20485;-72
2023/06/26 09:30:03;;;;;;;7.33;6.47;;;28.50;99.90;;;;;;5006478;28;20496;-71
2023/06/26 09:32:30;;;;;;;8.17;6.30;;;28.60;99.90;;;;;;5001627;28;20447;-71
2023/06/26 09:34:57;;;;;;;7.70;7.00;;;28.70;99.90;;;;;;5001441;28;20504;-72
2023/06/26 09:37:24;;;;;;;7.37;6.60;;;28.50;99.90;;;;;;5007542;28;20450;-71
2023/06/26 09:39:51;;;;;;;8.27;6.17;;;28.50;99.90;;;;;;5006860;28;20463;-71
2023/06/26 09:42:20;;;;;;;8.03;6.67;;;28.40;99.90;;;;;;5001548;28;20502;-72
2023/06/26 09:44:47;;;;;;;7.40;6.70;;;28.40;99.90;;;;;;5005113;28;20557;-72
2023/06/26 09:47:17;;;;;;;8.23;6.90;;;28.30;99.90;;;;;;5004685;28;20486;-71
2023/06/26 09:49:44;;;;;;;11.07;7.10;;;28.10;99.90;;;;;;5001094;28;20455;-72
2023/06/26 09:52:14;;;;;;;7.50;6.67;;;28.10;99.90;;;;;;5007706;28;20446;-71
2023/06/26 09:54:41;;;;;;;8.37;6.63;;;28.20;99.90;;;;;;5006609;28;20509;-72
2023/06/26 09:57:08;;;;;;;9.03;6.63;;;28.60;99.90;;;;;;5000444;28;20512;-72
2023/06/26 09:59:37;;;;;;;10.30;7.30;;;28.70;99.90;;;;;;5004727;28;20457;-70
2023/06/26 10:02:04;;;;;;;7.83;6.37;;;28.40;99.90;;;;;;5000317;28;20501;-70
2023/06/26 10:04:30;;;;;;;13.07;6.20;;;28.00;99.90;;;;;;5007768;28;20474;-71
2023/06/26 10:06:59;;;;;;;8.00;6.90;;;27.80;99.90;;;;;;5004172;28;20485;-71
2023/06/26 10:09:26;;;;;;;10.30;6.50;;;27.60;99.90;;;;;;5002970;28;21002;-72
2023/06/26 10:11:57;;;;;;;10.87;7.50;;;27.60;99.90;;;;;;5004176;28;20465;-69
2023/06/26 10:14:27;;;;;;;8.43;6.30;;;27.70;99.90;;;;;;5004011;28;20474;-69
2023/06/26 10:16:58;;;;;;;12.80;6.40;;;27.60;99.90;;;;;;5006528;28;20955;-70
2023/06/26 10:19:27;;;;;;;12.67;6.30;;;27.50;99.90;;;;;;5001787;28;20450;-69
2023/06/26 10:21:55;;;;;;;7.90;5.60;;;27.50;99.90;;;;;;5007259;28;20455;-70
2023/06/26 10:24:23;;;;;;;9.43;6.33;;;27.70;99.90;;;;;;5006830;28;20470;-70
2023/06/26 10:26:53;;;;;;;8.80;5.90;;;27.70;99.90;;;;;;5008466;28;20498;-70
2023/06/26 10:29:23;;;;;;;7.40;6.53;;;27.90;99.90;;;;;;5006396;28;20462;-70
2023/06/26 10:31:53;;;;;;;10.60;6.90;;;28.40;99.90;;;;;;5009125;28;20458;-70
2023/06/26 10:34:22;;;;;;;7.45;6.60;;;29.00;99.90;;;;;;5009030;28;20452;-69
2023/06/26 10:36:59;;;;;;;12.57;7.10;;;29.50;99.90;;;;;;5009302;28;20214;-70
2023/06/26 10:39:25;;;;;;;9.40;6.20;;;30.00;99.90;;;;;;5005773;28;20548;-70
2023/06/26 10:41:55;;;;;;;9.13;6.50;;;30.40;99.90;;;;;;5005216;28;20477;-71
2023/06/26 10:44:22;;;;;;;9.50;6.30;;;30.60;99.90;;;;;;5010007;28;21029;-71
2023/06/26 10:46:53;;;;;;;10.47;6.00;;;30.70;99.90;;;;;;5010163;28;20525;-71
2023/06/26 10:49:22;;;;;;;7.63;5.60;;;30.70;99.90;;;;;;5009729;28;20461;-70
2023/06/26 10:51:50;;;;;;;8.40;6.60;;;30.80;99.90;;;;;;5002738;28;20498;-71
2023/06/26 10:54:17;;;;;;;5.87;5.30;;;30.70;99.90;;;;;;5010402;28;20993;-71
2023/06/26 10:56:45;;;;;;;14.50;5.50;;;30.60;99.90;;;;;;5005693;28;20546;-70
2023/06/26 10:59:16;;;;;;;7.90;6.00;;;30.80;99.90;;;;;;5009817;28;20458;-70
2023/06/26 11:01:44;;;;;;;11.43;6.27;;;30.90;99.90;;;;;;5010168;28;20848;-70
2023/06/26 11:04:11;;;;;;;7.43;6.27;;;31.00;99.90;;;;;;5010416;28;20481;-70
2023/06/26 11:06:40;;;;;;;9.57;6.60;;;31.10;99.90;;;;;;5005739;28;20561;-71
2023/06/26 11:09:10;;;;;;;6.10;5.50;;;31.00;99.90;;;;;;4998224;28;20875;-71
2023/06/26 11:12:02;;;;;;;7.13;6.10;;;30.80;99.90;;;;;;5009823;28;20474;-71
2023/06/26 11:14:28;;;;;;;7.67;6.03;;;30.60;99.90;;;;;;5009570;28;20481;-71
2023/06/26 11:16:57;;;;;;;11.93;6.23;;;30.70;99.90;;;;;;5010221;28;20446;-71
2023/06/26 11:19:23;;;;;;;9.17;5.20;;;30.70;99.90;;;;;;5003791;28;20970;-70
2023/06/26 11:21:52;;;;;;;7.00;5.30;;;30.80;99.90;;;;;;5008174;28;20938;-70
2023/06/26 11:24:19;;;;;;;10.97;5.70;;;30.70;99.90;;;;;;5008506;28;20478;-71
2023/06/26 11:26:46;;;;;;;9.37;5.27;;;30.50;99.90;;;;;;5008329;28;20454;-72
2023/06/26 11:29:13;;;;;;;8.00;5.80;;;30.20;99.90;;;;;;5001999;28;20950;-70
2023/06/26 11:31:42;;;;;;;6.80;5.30;;;30.20;99.90;;;;;;5003186;28;20458;-70
2023/06/26 11:34:11;;;;;;;9.67;5.40;;;30.20;99.90;;;;;;5009607;28;20536;-71
2023/06/26 11:36:38;;;;;;;8.13;5.40;;;30.30;99.90;;;;;;5009904;28;20454;-71
2023/06/26 11:39:07;;;;;;;10.07;5.53;;;30.10;99.90;;;;;;5009433;28;21014;-70
2023/06/26 11:41:35;;;;;;;6.53;5.67;;;29.70;99.90;;;;;;5010038;28;20450;-70
2023/06/26 11:44:03;;;;;;;10.43;6.40;;;29.50;99.90;;;;;;5008502;28;21287;-71
2023/06/26 11:46:31;;;;;;;9.07;6.43;;;29.30;99.90;;;;;;5006152;28;20458;-71
2023/06/26 11:48:57;;;;;;;9.10;5.47;;;29.10;99.90;;;;;;5009213;28;20493;-71
2023/06/26 11:51:24;;;;;;;17.23;6.17;;;28.90;99.90;;;;;;5009639;28;20509;-70
2023/06/26 11:53:52;;;;;;;8.87;6.40;;;28.70;99.90;;;;;;5009335;28;20827;-70
2023/06/26 11:56:22;;;;;;;11.27;5.90;;;28.50;99.90;;;;;;5009273;28;20553;-70
2023/06/26 11:59:00;;;;;;;9.57;6.50;;;28.30;99.90;;;;;;5009353;28;20549;-70
2023/06/26 12:01:28;;;;;;;7.30;5.70;;;28.00;99.90;;;;;;5002905;28;20537;-70
2023/06/26 12:03:59;;;;;;;12.67;5.90;;;28.00;99.90;;;;;;5008898;28;21048;-71
2023/06/26 12:06:25;;;;;;;9.70;6.00;;;28.00;99.90;;;;;;5009870;28;21280;-69
2023/06/26 12:08:52;;;;;;;7.83;5.83;;;28.30;99.90;;;;;;5011208;28;20540;-70
2023/06/26 12:11:23;;;;;;;9.27;6.00;;;28.50;99.90;;;;;;5009066;28;20565;-70
2023/06/26 12:13:50;;;;;;;11.57;6.70;;;28.90;99.90;;;;;;5007977;28;20474;-69
2023/06/26 12:16:17;;;;;;;12.07;6.17;;;28.90;99.90;;;;;;5008821;28;20864;-71
2023/06/26 12:18:43;;;;;;;11.30;7.00;;;28.70;99.90;;;;;;5008765;28;20771;-69
2023/06/26 12:21:28;;;;;;;8.60;5.97;;;28.90;99.90;;;;;;5007960;28;20450;-69
2023/06/26 12:23:59;;;;;;;13.80;5.80;;;29.20;99.90;;;;;;5008159;28;20524;-71
2023/06/26 12:26:28;;;;;;;9.17;6.00;;;29.50;99.90;;;;;;5008496;28;20898;-70
2023/06/26 12:29:01;;;;;;;16.10;5.43;;;29.70;99.90;;;;;;5007751;28;20482;-69
2023/06/26 12:31:28;;;;;;;11.13;5.83;;;29.90;99.90;;;;;;5006449;28;20986;-70
2023/06/26 12:33:55;;;;;;;9.30;5.70;;;30.20;99.90;;;;;;5008010;28;21265;-69
2023/06/26 12:36:21;;;;;;;10.10;5.80;;;30.50;99.90;;;;;;5007714;28;20465;-69